createdAt,value
2022-08-28T00:01:08.599Z,13.25
2022-08-28T00:03:40.210Z,11.65
2022-08-28T00:06:12.893Z,13.00
2022-08-28T00:08:43.966Z,11.95
2022-08-28T00:11:15.449Z,12.82
2022-08-28T00:13:46.601Z,11.95
2022-08-28T00:16:19.141Z,12.98
2022-08-28T00:18:50.164Z,11.75
2022-08-28T00:21:21.268Z,12.70
2022-08-28T00:23:54.415Z,12.33
2022-08-28T00:26:39.994Z,12.37
2022-08-28T00:29:11.533Z,11.85
2022-08-28T00:31:42.679Z,11.45
2022-08-28T00:34:14.428Z,12.80
2022-08-28T00:36:45.643Z,12.18
2022-08-28T00:39:17.567Z,12.55
2022-08-28T00:41:51.335Z,12.23
2022-08-28T00:44:26.840Z,12.60
2022-08-28T00:47:00.555Z,12.88
2022-08-28T00:49:34.448Z,12.80
2022-08-28T00:52:12.659Z,12.40
2022-08-28T00:54:59.034Z,12.85
2022-08-28T00:57:35.137Z,12.80
2022-08-28T01:00:09.182Z,12.88
2022-08-28T01:02:40.594Z,12.90
2022-08-28T01:05:13.372Z,12.53
2022-08-28T01:07:45.590Z,11.80
2022-08-28T01:10:19.843Z,12.68
2022-08-28T01:12:51.620Z,13.18
2022-08-28T01:15:25.643Z,21.30
2022-08-28T01:18:02.552Z,25.15
2022-08-28T01:20:36.661Z,44.63
2022-08-28T01:23:25.520Z,49.45
2022-08-28T01:26:00.661Z,49.42
2022-08-28T01:28:32.637Z,43.83
2022-08-28T01:31:03.609Z,31.15
2022-08-28T01:33:34.951Z,23.25
2022-08-28T01:36:07.682Z,18.10
2022-08-28T01:38:40.872Z,17.57
2022-08-28T01:41:15.744Z,16.42
2022-08-28T01:43:47.626Z,15.75
2022-08-28T01:46:20.144Z,14.60
2022-08-28T01:48:51.230Z,14.43
2022-08-28T01:51:24.635Z,12.80
2022-08-28T01:53:56.942Z,13.88
2022-08-28T01:56:30.328Z,13.10
2022-08-28T01:59:04.166Z,12.50
2022-08-28T02:01:35.956Z,13.18
2022-08-28T02:04:07.477Z,12.45
2022-08-28T02:06:38.854Z,12.78
2022-08-28T02:09:14.874Z,13.15
2022-08-28T02:11:46.767Z,13.32
2022-08-28T02:14:18.075Z,12.85
2022-08-28T02:16:49.542Z,12.37
2022-08-28T02:19:21.412Z,12.28
2022-08-28T02:21:53.153Z,11.65
2022-08-28T02:24:24.332Z,12.90
2022-08-28T02:26:55.681Z,12.33
2022-08-28T02:29:27.622Z,12.93
2022-08-28T02:31:58.826Z,12.85
2022-08-28T02:34:30.144Z,13.15
2022-08-28T02:37:01.914Z,13.38
2022-08-28T02:39:33.392Z,12.88
2022-08-28T02:42:04.642Z,13.00
2022-08-28T02:44:36.276Z,15.00
2022-08-28T02:47:07.977Z,14.05
2022-08-28T02:49:39.652Z,13.60
2022-08-28T02:52:11.025Z,14.28
2022-08-28T02:54:42.503Z,14.25
2022-08-28T02:57:14.011Z,12.43
2022-08-28T02:59:46.819Z,14.25
2022-08-28T03:02:18.055Z,13.25
2022-08-28T03:04:49.360Z,13.62
2022-08-28T03:07:23.111Z,14.15
2022-08-28T03:09:54.224Z,14.03
2022-08-28T03:12:26.040Z,12.95
2022-08-28T03:14:57.526Z,13.35
2022-08-28T03:17:29.107Z,13.43
2022-08-28T03:20:01.068Z,12.53
2022-08-28T03:22:45.618Z,13.20
2022-08-28T03:25:17.853Z,12.45
2022-08-28T03:27:49.218Z,12.10
2022-08-28T03:30:22.034Z,13.08
2022-08-28T03:32:54.413Z,12.20
2022-08-28T03:35:25.600Z,12.78
2022-08-28T03:37:56.710Z,12.73
2022-08-28T03:40:27.958Z,12.18
2022-08-28T03:42:59.222Z,13.30
2022-08-28T03:45:31.080Z,13.18
2022-08-28T03:48:05.087Z,12.73
2022-08-28T03:50:37.263Z,12.53
2022-08-28T03:53:09.545Z,12.70
2022-08-28T03:55:43.205Z,12.88
2022-08-28T03:58:18.808Z,12.63
2022-08-28T04:00:48.750Z,12.75
2022-08-28T04:03:20.570Z,13.25
2022-08-28T04:05:52.437Z,12.60
2022-08-28T04:08:23.905Z,12.88
2022-08-28T04:10:55.560Z,13.15
2022-08-28T04:13:26.445Z,13.48
2022-08-28T04:16:03.431Z,12.68
2022-08-28T04:18:36.057Z,12.85
2022-08-28T04:21:10.245Z,13.08
2022-08-28T04:23:46.152Z,12.98
2022-08-28T04:26:20.380Z,12.75
2022-08-28T04:28:53.831Z,13.88
2022-08-28T04:31:31.096Z,14.30
2022-08-28T04:34:01.043Z,13.53
2022-08-28T04:36:35.352Z,12.82
2022-08-28T04:39:11.480Z,13.22
2022-08-28T04:41:42.954Z,14.05
2022-08-28T04:44:14.210Z,13.62
2022-08-28T04:46:48.308Z,13.93
2022-08-28T04:49:19.994Z,14.25
2022-08-28T04:51:51.473Z,13.60
2022-08-28T04:54:22.752Z,14.07
2022-08-28T04:56:54.271Z,14.15
2022-08-28T04:59:25.513Z,13.65
2022-08-28T05:01:56.873Z,13.50
2022-08-28T05:04:28.493Z,13.40
2022-08-28T05:06:59.748Z,13.78
2022-08-28T05:09:32.282Z,12.35
2022-08-28T05:12:06.037Z,12.98
2022-08-28T05:14:38.137Z,13.25
2022-08-28T05:17:10.086Z,13.25
2022-08-28T05:19:41.781Z,13.45
2022-08-28T05:22:12.986Z,12.90
2022-08-28T05:24:44.377Z,12.82
2022-08-28T05:27:15.627Z,13.22
2022-08-28T05:29:46.659Z,13.18
2022-08-28T05:32:17.599Z,13.43
2022-08-28T05:34:48.987Z,12.05
2022-08-28T05:37:20.492Z,12.82
2022-08-28T05:39:51.830Z,13.30
2022-08-28T05:42:23.467Z,13.08
2022-08-28T05:44:59.341Z,12.65
2022-08-28T05:47:32.156Z,13.48
2022-08-28T05:50:03.857Z,13.43
2022-08-28T05:52:36.487Z,14.00
2022-08-28T05:55:09.456Z,14.60
2022-08-28T05:57:41.816Z,13.60
2022-08-28T06:00:14.141Z,13.80
2022-08-28T06:02:45.395Z,13.62
2022-08-28T06:05:18.259Z,14.43
2022-08-28T06:07:53.208Z,14.15
2022-08-28T06:10:24.365Z,14.47
2022-08-28T06:12:56.464Z,14.10
2022-08-28T06:15:27.567Z,14.87
2022-08-28T06:17:58.745Z,14.55
2022-08-28T06:20:30.075Z,15.15
2022-08-28T06:23:01.321Z,14.03
2022-08-28T06:25:32.567Z,13.90
2022-08-28T06:28:04.401Z,14.78
2022-08-28T06:30:52.744Z,15.05
2022-08-28T06:33:21.855Z,14.50
2022-08-28T06:36:32.248Z,14.98
2022-08-28T06:39:05.743Z,14.80
2022-08-28T06:41:39.455Z,15.08
2022-08-28T06:44:13.074Z,15.45
2022-08-28T06:46:48.413Z,14.63
2022-08-28T06:49:26.278Z,14.93
2022-08-28T06:52:03.670Z,13.65
2022-08-28T06:54:38.121Z,15.10
2022-08-28T06:57:14.859Z,14.30
2022-08-28T06:59:50.979Z,16.52
2022-08-28T07:05:37.931Z,16.52
2022-08-28T07:08:26.682Z,17.40
2022-08-28T07:14:26.937Z,16.65
2022-08-28T07:16:58.056Z,16.10
2022-08-28T07:19:29.006Z,15.53
2022-08-28T07:22:00.410Z,16.75
2022-08-28T07:24:34.226Z,16.12
2022-08-28T07:27:06.006Z,16.02
2022-08-28T07:29:36.920Z,17.32
2022-08-28T07:32:09.380Z,16.82
2022-08-28T07:34:42.227Z,16.80
2022-08-28T07:37:15.357Z,17.25
2022-08-28T07:39:45.928Z,15.75
2022-08-28T07:42:18.765Z,16.60
2022-08-28T07:44:54.121Z,17.05
2022-08-28T07:47:26.410Z,16.65
2022-08-28T07:49:58.181Z,16.27
2022-08-28T07:52:31.423Z,15.98
2022-08-28T07:55:02.241Z,16.87
